<?xml version="1.0" encoding="UTF-8" standalone="no" ?>
<gpx xmlns="http://www.topografix.com/GPX/1/1" xmlns:xsi="http://www.w3.org/2001/XMLSchema-instance" xsi:schemaLocation="http://www.topografix.com/GPX/1/1 http://www.topografix.com/GPX/1/1/gpx.xsd" version="1.1" creator="VisuGPX - https://www.visugpx.com">
  <metadata>
    <name>Arca Pianelli Muratello Borivoli</name>
  </metadata>
  <trk>
    <name><![CDATA[Arca Pianelli Muratello Borivoli_2]]></name>
    <trkseg>
      <trkpt lat="41.572" lon="9.21407">
        <ele>36.4</ele>
        <time>2018-05-21T12:58:39Z</time>
      </trkpt>
      <trkpt lat="41.572" lon="9.21407">
        <ele>36.4</ele>
        <time>2018-05-21T12:58:39Z</time>
      </trkpt>
      <trkpt lat="41.57203" lon="9.21413">
        <ele>36.2</ele>
        <time>2018-05-21T12:59:12Z</time>
      </trkpt>
      <trkpt lat="41.57218" lon="9.21421">
        <ele>36.2</ele>
        <time>2018-05-21T12:59:17Z</time>
      </trkpt>
      <trkpt lat="41.57242" lon="9.21425">
        <ele>36.4</ele>
        <time>2018-05-21T12:59:24Z</time>
      </trkpt>
      <trkpt lat="41.57263" lon="9.21422">
        <ele>36.6</ele>
        <time>2018-05-21T12:59:30Z</time>
      </trkpt>
      <trkpt lat="41.57294" lon="9.21401">
        <ele>37.2</ele>
        <time>2018-05-21T12:59:39Z</time>
      </trkpt>
      <trkpt lat="41.5732" lon="9.21383">
        <ele>37.8</ele>
        <time>2018-05-21T12:59:47Z</time>
      </trkpt>
      <trkpt lat="41.57341" lon="9.21366">
        <ele>39</ele>
        <time>2018-05-21T12:59:54Z</time>
      </trkpt>
      <trkpt lat="41.57353" lon="9.21345">
        <ele>39</ele>
        <time>2018-05-21T12:59:59Z</time>
      </trkpt>
      <trkpt lat="41.57355" lon="9.2134">
        <ele>39</ele>
        <time>2018-05-21T13:00:00Z</time>
      </trkpt>
      <trkpt lat="41.57357" lon="9.21335">
        <ele>38.8</ele>
        <time>2018-05-21T13:00:01Z</time>
      </trkpt>
      <trkpt lat="41.57368" lon="9.21313">
        <ele>38.2</ele>
        <time>2018-05-21T13:00:05Z</time>
      </trkpt>
      <trkpt lat="41.57385" lon="9.21283">
        <ele>38.2</ele>
        <time>2018-05-21T13:00:11Z</time>
      </trkpt>
      <trkpt lat="41.5739" lon="9.21273">
        <ele>38.4</ele>
        <time>2018-05-21T13:00:13Z</time>
      </trkpt>
      <trkpt lat="41.57392" lon="9.21268">
        <ele>38.6</ele>
        <time>2018-05-21T13:00:14Z</time>
      </trkpt>
      <trkpt lat="41.574" lon="9.21241">
        <ele>39.4</ele>
        <time>2018-05-21T13:00:19Z</time>
      </trkpt>
      <trkpt lat="41.57406" lon="9.21218">
        <ele>40</ele>
        <time>2018-05-21T13:00:23Z</time>
      </trkpt>
      <trkpt lat="41.57414" lon="9.21195">
        <ele>40.2</ele>
        <time>2018-05-21T13:00:27Z</time>
      </trkpt>
      <trkpt lat="41.57433" lon="9.21153">
        <ele>40.8</ele>
        <time>2018-05-21T13:00:35Z</time>
      </trkpt>
      <trkpt lat="41.57441" lon="9.21137">
        <ele>41.2</ele>
        <time>2018-05-21T13:00:38Z</time>
      </trkpt>
      <trkpt lat="41.57458" lon="9.21107">
        <ele>41.6</ele>
        <time>2018-05-21T13:00:44Z</time>
      </trkpt>
      <trkpt lat="41.57476" lon="9.2108">
        <ele>42</ele>
        <time>2018-05-21T13:00:50Z</time>
      </trkpt>
      <trkpt lat="41.57479" lon="9.21076">
        <ele>42.2</ele>
        <time>2018-05-21T13:00:51Z</time>
      </trkpt>
      <trkpt lat="41.57482" lon="9.21071">
        <ele>42.2</ele>
        <time>2018-05-21T13:00:52Z</time>
      </trkpt>
      <trkpt lat="41.57499" lon="9.21039">
        <ele>42.4</ele>
        <time>2018-05-21T13:00:58Z</time>
      </trkpt>
      <trkpt lat="41.57514" lon="9.21">
        <ele>43.2</ele>
        <time>2018-05-21T13:01:05Z</time>
      </trkpt>
      <trkpt lat="41.57515" lon="9.20994">
        <ele>43.2</ele>
        <time>2018-05-21T13:01:06Z</time>
      </trkpt>
      <trkpt lat="41.5752" lon="9.20978">
        <ele>43.6</ele>
        <time>2018-05-21T13:01:09Z</time>
      </trkpt>
      <trkpt lat="41.57522" lon="9.20972">
        <ele>43.8</ele>
        <time>2018-05-21T13:01:10Z</time>
      </trkpt>
      <trkpt lat="41.5753" lon="9.20952">
        <ele>44.2</ele>
        <time>2018-05-21T13:01:14Z</time>
      </trkpt>
      <trkpt lat="41.57542" lon="9.20933">
        <ele>44.8</ele>
        <time>2018-05-21T13:01:18Z</time>
      </trkpt>
      <trkpt lat="41.57545" lon="9.20929">
        <ele>44.8</ele>
        <time>2018-05-21T13:01:19Z</time>
      </trkpt>
      <trkpt lat="41.5756" lon="9.20915">
        <ele>45.4</ele>
        <time>2018-05-21T13:01:23Z</time>
      </trkpt>
      <trkpt lat="41.57565" lon="9.20912">
        <ele>45.4</ele>
        <time>2018-05-21T13:01:24Z</time>
      </trkpt>
      <trkpt lat="41.576" lon="9.20891">
        <ele>45.8</ele>
        <time>2018-05-21T13:01:32Z</time>
      </trkpt>
      <trkpt lat="41.57617" lon="9.20883">
        <ele>45.8</ele>
        <time>2018-05-21T13:01:36Z</time>
      </trkpt>
      <trkpt lat="41.57623" lon="9.20875">
        <ele>46</ele>
        <time>2018-05-21T13:01:38Z</time>
      </trkpt>
      <trkpt lat="41.57627" lon="9.20859">
        <ele>46.2</ele>
        <time>2018-05-21T13:01:41Z</time>
      </trkpt>
      <trkpt lat="41.57627" lon="9.20854">
        <ele>46.2</ele>
        <time>2018-05-21T13:01:42Z</time>
      </trkpt>
      <trkpt lat="41.57624" lon="9.20837">
        <ele>46.2</ele>
        <time>2018-05-21T13:01:45Z</time>
      </trkpt>
      <trkpt lat="41.57625" lon="9.20829">
        <ele>46.2</ele>
        <time>2018-05-21T13:01:47Z</time>
      </trkpt>
      <trkpt lat="41.57634" lon="9.20826">
        <ele>46</ele>
        <time>2018-05-21T13:01:51Z</time>
      </trkpt>
      <trkpt lat="41.57653" lon="9.20822">
        <ele>46.2</ele>
        <time>2018-05-21T13:01:58Z</time>
      </trkpt>
      <trkpt lat="41.57669" lon="9.20816">
        <ele>47</ele>
        <time>2018-05-21T13:02:05Z</time>
      </trkpt>
      <trkpt lat="41.57671" lon="9.20816">
        <ele>47.2</ele>
        <time>2018-05-21T13:02:06Z</time>
      </trkpt>
      <trkpt lat="41.57677" lon="9.20815">
        <ele>47.8</ele>
        <time>2018-05-21T13:02:09Z</time>
      </trkpt>
      <trkpt lat="41.57683" lon="9.20812">
        <ele>48.2</ele>
        <time>2018-05-21T13:02:12Z</time>
      </trkpt>
      <trkpt lat="41.57688" lon="9.20811">
        <ele>48.4</ele>
        <time>2018-05-21T13:02:14Z</time>
      </trkpt>
      <trkpt lat="41.57703" lon="9.2081">
        <ele>49.2</ele>
        <time>2018-05-21T13:02:20Z</time>
      </trkpt>
      <trkpt lat="41.57705" lon="9.2081">
        <ele>49.4</ele>
        <time>2018-05-21T13:02:21Z</time>
      </trkpt>
      <trkpt lat="41.57713" lon="9.20806">
        <ele>50</ele>
        <time>2018-05-21T13:02:25Z</time>
      </trkpt>
      <trkpt lat="41.5772" lon="9.20803">
        <ele>50.4</ele>
        <time>2018-05-21T13:02:28Z</time>
      </trkpt>
      <trkpt lat="41.57726" lon="9.20801">
        <ele>50.6</ele>
        <time>2018-05-21T13:02:31Z</time>
      </trkpt>
      <trkpt lat="41.57733" lon="9.208">
        <ele>50.4</ele>
        <time>2018-05-21T13:02:35Z</time>
      </trkpt>
      <trkpt lat="41.57734" lon="9.20801">
        <ele>50.2</ele>
        <time>2018-05-21T13:02:36Z</time>
      </trkpt>
      <trkpt lat="41.5774" lon="9.20807">
        <ele>49.8</ele>
        <time>2018-05-21T13:02:40Z</time>
      </trkpt>
      <trkpt lat="41.5775" lon="9.20813">
        <ele>49.4</ele>
        <time>2018-05-21T13:02:44Z</time>
      </trkpt>
      <trkpt lat="41.57752" lon="9.20816">
        <ele>49.2</ele>
        <time>2018-05-21T13:02:45Z</time>
      </trkpt>
      <trkpt lat="41.57761" lon="9.20823">
        <ele>48.8</ele>
        <time>2018-05-21T13:02:49Z</time>
      </trkpt>
      <trkpt lat="41.57764" lon="9.20823">
        <ele>48.4</ele>
        <time>2018-05-21T13:02:50Z</time>
      </trkpt>
      <trkpt lat="41.57766" lon="9.20823">
        <ele>48.2</ele>
        <time>2018-05-21T13:02:51Z</time>
      </trkpt>
      <trkpt lat="41.57774" lon="9.20823">
        <ele>47.6</ele>
        <time>2018-05-21T13:02:53Z</time>
      </trkpt>
      <trkpt lat="41.57782" lon="9.20824">
        <ele>46.8</ele>
        <time>2018-05-21T13:02:55Z</time>
      </trkpt>
      <trkpt lat="41.57794" lon="9.20825">
        <ele>46.2</ele>
        <time>2018-05-21T13:02:57Z</time>
      </trkpt>
      <trkpt lat="41.578" lon="9.20826">
        <ele>45.4</ele>
        <time>2018-05-21T13:02:58Z</time>
      </trkpt>
      <trkpt lat="41.5781" lon="9.20826">
        <ele>44.4</ele>
        <time>2018-05-21T13:03:00Z</time>
      </trkpt>
      <trkpt lat="41.57815" lon="9.20827">
        <ele>43.6</ele>
        <time>2018-05-21T13:03:01Z</time>
      </trkpt>
      <trkpt lat="41.57822" lon="9.20826">
        <ele>42</ele>
        <time>2018-05-21T13:03:03Z</time>
      </trkpt>
      <trkpt lat="41.57827" lon="9.20825">
        <ele>41.4</ele>
        <time>2018-05-21T13:03:04Z</time>
      </trkpt>
      <trkpt lat="41.57831" lon="9.20824">
        <ele>40.8</ele>
        <time>2018-05-21T13:03:05Z</time>
      </trkpt>
      <trkpt lat="41.57838" lon="9.20818">
        <ele>39.4</ele>
        <time>2018-05-21T13:03:08Z</time>
      </trkpt>
      <trkpt lat="41.57845" lon="9.20811">
        <ele>39.2</ele>
        <time>2018-05-21T13:03:13Z</time>
      </trkpt>
      <trkpt lat="41.57846" lon="9.2081">
        <ele>39.2</ele>
        <time>2018-05-21T13:03:14Z</time>
      </trkpt>
      <trkpt lat="41.57873" lon="9.2077">
        <ele>41.6</ele>
        <time>2018-05-21T13:04:21Z</time>
      </trkpt>
      <trkpt lat="41.57876" lon="9.20767">
        <ele>41.8</ele>
        <time>2018-05-21T13:04:23Z</time>
      </trkpt>
      <trkpt lat="41.5788" lon="9.20764">
        <ele>42.6</ele>
        <time>2018-05-21T13:04:26Z</time>
      </trkpt>
      <trkpt lat="41.57881" lon="9.20761">
        <ele>43.2</ele>
        <time>2018-05-21T13:04:27Z</time>
      </trkpt>
      <trkpt lat="41.57883" lon="9.20754">
        <ele>43.6</ele>
        <time>2018-05-21T13:04:30Z</time>
      </trkpt>
      <trkpt lat="41.57885" lon="9.20752">
        <ele>43.8</ele>
        <time>2018-05-21T13:04:31Z</time>
      </trkpt>
      <trkpt lat="41.57889" lon="9.20749">
        <ele>44.4</ele>
        <time>2018-05-21T13:04:34Z</time>
      </trkpt>
      <trkpt lat="41.57891" lon="9.20748">
        <ele>44.8</ele>
        <time>2018-05-21T13:04:35Z</time>
      </trkpt>
      <trkpt lat="41.57895" lon="9.20742">
        <ele>45.8</ele>
        <time>2018-05-21T13:04:39Z</time>
      </trkpt>
      <trkpt lat="41.57897" lon="9.20739">
        <ele>47</ele>
        <time>2018-05-21T13:04:43Z</time>
      </trkpt>
      <trkpt lat="41.5792" lon="9.20708">
        <ele>49.4</ele>
        <time>2018-05-21T13:07:00Z</time>
      </trkpt>
      <trkpt lat="41.57922" lon="9.20706">
        <ele>49.8</ele>
        <time>2018-05-21T13:07:01Z</time>
      </trkpt>
      <trkpt lat="41.5793" lon="9.20698">
        <ele>50.6</ele>
        <time>2018-05-21T13:07:06Z</time>
      </trkpt>
      <trkpt lat="41.57932" lon="9.20698">
        <ele>50.8</ele>
        <time>2018-05-21T13:07:07Z</time>
      </trkpt>
      <trkpt lat="41.57934" lon="9.20696">
        <ele>50.8</ele>
        <time>2018-05-21T13:07:08Z</time>
      </trkpt>
      <trkpt lat="41.57936" lon="9.20689">
        <ele>51.4</ele>
        <time>2018-05-21T13:07:12Z</time>
      </trkpt>
      <trkpt lat="41.57937" lon="9.20687">
        <ele>51.8</ele>
        <time>2018-05-21T13:07:13Z</time>
      </trkpt>
      <trkpt lat="41.5794" lon="9.2068">
        <ele>52.8</ele>
        <time>2018-05-21T13:07:16Z</time>
      </trkpt>
      <trkpt lat="41.57944" lon="9.20673">
        <ele>53.8</ele>
        <time>2018-05-21T13:07:21Z</time>
      </trkpt>
      <trkpt lat="41.57945" lon="9.20672">
        <ele>53.8</ele>
        <time>2018-05-21T13:07:22Z</time>
      </trkpt>
      <trkpt lat="41.57949" lon="9.20661">
        <ele>54</ele>
        <time>2018-05-21T13:07:29Z</time>
      </trkpt>
      <trkpt lat="41.57949" lon="9.20651">
        <ele>53.6</ele>
        <time>2018-05-21T13:07:32Z</time>
      </trkpt>
      <trkpt lat="41.57952" lon="9.20644">
        <ele>52.6</ele>
        <time>2018-05-21T13:07:34Z</time>
      </trkpt>
      <trkpt lat="41.57954" lon="9.20637">
        <ele>51.6</ele>
        <time>2018-05-21T13:07:36Z</time>
      </trkpt>
      <trkpt lat="41.57958" lon="9.20627">
        <ele>51</ele>
        <time>2018-05-21T13:07:39Z</time>
      </trkpt>
      <trkpt lat="41.57959" lon="9.20624">
        <ele>50.8</ele>
        <time>2018-05-21T13:07:40Z</time>
      </trkpt>
      <trkpt lat="41.57962" lon="9.20616">
        <ele>50.6</ele>
        <time>2018-05-21T13:07:42Z</time>
      </trkpt>
      <trkpt lat="41.57966" lon="9.20605">
        <ele>50.6</ele>
        <time>2018-05-21T13:07:45Z</time>
      </trkpt>
      <trkpt lat="41.57971" lon="9.20596">
        <ele>51.2</ele>
        <time>2018-05-21T13:07:48Z</time>
      </trkpt>
      <trkpt lat="41.57972" lon="9.20594">
        <ele>51.2</ele>
        <time>2018-05-21T13:07:49Z</time>
      </trkpt>
      <trkpt lat="41.57981" lon="9.20575">
        <ele>51.6</ele>
        <time>2018-05-21T13:07:54Z</time>
      </trkpt>
      <trkpt lat="41.57982" lon="9.20573">
        <ele>51.8</ele>
        <time>2018-05-21T13:07:55Z</time>
      </trkpt>
      <trkpt lat="41.57987" lon="9.20565">
        <ele>52.2</ele>
        <time>2018-05-21T13:07:58Z</time>
      </trkpt>
      <trkpt lat="41.57997" lon="9.20546">
        <ele>51.8</ele>
        <time>2018-05-21T13:08:04Z</time>
      </trkpt>
      <trkpt lat="41.58005" lon="9.20536">
        <ele>51.2</ele>
        <time>2018-05-21T13:08:08Z</time>
      </trkpt>
      <trkpt lat="41.58009" lon="9.20529">
        <ele>50.8</ele>
        <time>2018-05-21T13:08:10Z</time>
      </trkpt>
      <trkpt lat="41.58014" lon="9.20515">
        <ele>50.4</ele>
        <time>2018-05-21T13:08:13Z</time>
      </trkpt>
      <trkpt lat="41.58024" lon="9.2049">
        <ele>49.8</ele>
        <time>2018-05-21T13:08:19Z</time>
      </trkpt>
      <trkpt lat="41.58036" lon="9.20467">
        <ele>50</ele>
        <time>2018-05-21T13:08:25Z</time>
      </trkpt>
      <trkpt lat="41.58043" lon="9.20451">
        <ele>50.8</ele>
        <time>2018-05-21T13:08:30Z</time>
      </trkpt>
      <trkpt lat="41.58044" lon="9.20448">
        <ele>51</ele>
        <time>2018-05-21T13:08:31Z</time>
      </trkpt>
      <trkpt lat="41.58049" lon="9.2044">
        <ele>51.4</ele>
        <time>2018-05-21T13:08:34Z</time>
      </trkpt>
      <trkpt lat="41.5805" lon="9.20437">
        <ele>51.8</ele>
        <time>2018-05-21T13:08:35Z</time>
      </trkpt>
      <trkpt lat="41.58054" lon="9.2043">
        <ele>52.6</ele>
        <time>2018-05-21T13:08:38Z</time>
      </trkpt>
      <trkpt lat="41.58055" lon="9.20428">
        <ele>53</ele>
        <time>2018-05-21T13:08:39Z</time>
      </trkpt>
      <trkpt lat="41.58059" lon="9.20423">
        <ele>53.4</ele>
        <time>2018-05-21T13:08:41Z</time>
      </trkpt>
      <trkpt lat="41.58063" lon="9.20415">
        <ele>54.2</ele>
        <time>2018-05-21T13:08:44Z</time>
      </trkpt>
      <trkpt lat="41.58071" lon="9.20399">
        <ele>55.2</ele>
        <time>2018-05-21T13:08:49Z</time>
      </trkpt>
      <trkpt lat="41.58073" lon="9.20396">
        <ele>55.6</ele>
        <time>2018-05-21T13:08:50Z</time>
      </trkpt>
      <trkpt lat="41.58076" lon="9.20389">
        <ele>56.4</ele>
        <time>2018-05-21T13:08:52Z</time>
      </trkpt>
      <trkpt lat="41.58081" lon="9.20381">
        <ele>57.6</ele>
        <time>2018-05-21T13:08:55Z</time>
      </trkpt>
      <trkpt lat="41.58084" lon="9.20376">
        <ele>58.8</ele>
        <time>2018-05-21T13:08:58Z</time>
      </trkpt>
      <trkpt lat="41.58089" lon="9.20371">
        <ele>59.2</ele>
        <time>2018-05-21T13:09:02Z</time>
      </trkpt>
      <trkpt lat="41.5809" lon="9.20367">
        <ele>59.2</ele>
        <time>2018-05-21T13:09:04Z</time>
      </trkpt>
      <trkpt lat="41.58089" lon="9.20365">
        <ele>59.4</ele>
        <time>2018-05-21T13:09:06Z</time>
      </trkpt>
      <trkpt lat="41.58089" lon="9.20368">
        <ele>59.4</ele>
        <time>2018-05-21T13:09:08Z</time>
      </trkpt>
      <trkpt lat="41.5809" lon="9.20374">
        <ele>59.4</ele>
        <time>2018-05-21T13:09:12Z</time>
      </trkpt>
      <trkpt lat="41.58092" lon="9.20376">
        <ele>59.4</ele>
        <time>2018-05-21T13:09:16Z</time>
      </trkpt>
      <trkpt lat="41.58091" lon="9.20372">
        <ele>59</ele>
        <time>2018-05-21T13:10:06Z</time>
      </trkpt>
      <trkpt lat="41.58086" lon="9.20371">
        <ele>59.2</ele>
        <time>2018-05-21T13:10:10Z</time>
      </trkpt>
      <trkpt lat="41.58084" lon="9.20373">
        <ele>59</ele>
        <time>2018-05-21T13:10:14Z</time>
      </trkpt>
      <trkpt lat="41.58095" lon="9.20384">
        <ele>58.8</ele>
        <time>2018-05-21T13:11:58Z</time>
      </trkpt>
      <trkpt lat="41.58097" lon="9.20396">
        <ele>58.6</ele>
        <time>2018-05-21T13:12:02Z</time>
      </trkpt>
      <trkpt lat="41.58097" lon="9.204">
        <ele>58.4</ele>
        <time>2018-05-21T13:12:03Z</time>
      </trkpt>
      <trkpt lat="41.58102" lon="9.2043">
        <ele>57.4</ele>
        <time>2018-05-21T13:12:10Z</time>
      </trkpt>
      <trkpt lat="41.58107" lon="9.20456">
        <ele>56.2</ele>
        <time>2018-05-21T13:12:15Z</time>
      </trkpt>
      <trkpt lat="41.58108" lon="9.2046">
        <ele>55.8</ele>
        <time>2018-05-21T13:12:16Z</time>
      </trkpt>
      <trkpt lat="41.58111" lon="9.20468">
        <ele>54.8</ele>
        <time>2018-05-21T13:12:18Z</time>
      </trkpt>
      <trkpt lat="41.58113" lon="9.20477">
        <ele>53.8</ele>
        <time>2018-05-21T13:12:20Z</time>
      </trkpt>
      <trkpt lat="41.58115" lon="9.20487">
        <ele>52.6</ele>
        <time>2018-05-21T13:12:22Z</time>
      </trkpt>
      <trkpt lat="41.58118" lon="9.20497">
        <ele>51.2</ele>
        <time>2018-05-21T13:12:24Z</time>
      </trkpt>
      <trkpt lat="41.58121" lon="9.20508">
        <ele>49.6</ele>
        <time>2018-05-21T13:12:26Z</time>
      </trkpt>
      <trkpt lat="41.58123" lon="9.20512">
        <ele>48</ele>
        <time>2018-05-21T13:12:27Z</time>
      </trkpt>
      <trkpt lat="41.58125" lon="9.20515">
        <ele>46.8</ele>
        <time>2018-05-21T13:12:28Z</time>
      </trkpt>
      <trkpt lat="41.58128" lon="9.20518">
        <ele>45.4</ele>
        <time>2018-05-21T13:12:29Z</time>
      </trkpt>
      <trkpt lat="41.5813" lon="9.20519">
        <ele>44.2</ele>
        <time>2018-05-21T13:12:30Z</time>
      </trkpt>
      <trkpt lat="41.58132" lon="9.20521">
        <ele>43.4</ele>
        <time>2018-05-21T13:12:31Z</time>
      </trkpt>
      <trkpt lat="41.58134" lon="9.20522">
        <ele>42.6</ele>
        <time>2018-05-21T13:12:32Z</time>
      </trkpt>
      <trkpt lat="41.58136" lon="9.20526">
        <ele>41.4</ele>
        <time>2018-05-21T13:12:34Z</time>
      </trkpt>
      <trkpt lat="41.58138" lon="9.20532">
        <ele>40.6</ele>
        <time>2018-05-21T13:12:37Z</time>
      </trkpt>
      <trkpt lat="41.58138" lon="9.20534">
        <ele>40.4</ele>
        <time>2018-05-21T13:12:38Z</time>
      </trkpt>
      <trkpt lat="41.58139" lon="9.20535">
        <ele>39.8</ele>
        <time>2018-05-21T13:12:40Z</time>
      </trkpt>
      <trkpt lat="41.58153" lon="9.20558">
        <ele>40.4</ele>
        <time>2018-05-21T13:13:29Z</time>
      </trkpt>
      <trkpt lat="41.58153" lon="9.2056">
        <ele>40.4</ele>
        <time>2018-05-21T13:13:30Z</time>
      </trkpt>
      <trkpt lat="41.58156" lon="9.20579">
        <ele>40.2</ele>
        <time>2018-05-21T13:13:37Z</time>
      </trkpt>
      <trkpt lat="41.58155" lon="9.20583">
        <ele>40.2</ele>
        <time>2018-05-21T13:13:39Z</time>
      </trkpt>
      <trkpt lat="41.58155" lon="9.20589">
        <ele>40.2</ele>
        <time>2018-05-21T13:13:41Z</time>
      </trkpt>
      <trkpt lat="41.58155" lon="9.20604">
        <ele>39.8</ele>
        <time>2018-05-21T13:13:46Z</time>
      </trkpt>
      <trkpt lat="41.58154" lon="9.2062">
        <ele>39.8</ele>
        <time>2018-05-21T13:13:51Z</time>
      </trkpt>
      <trkpt lat="41.58154" lon="9.20635">
        <ele>39.6</ele>
        <time>2018-05-21T13:13:56Z</time>
      </trkpt>
      <trkpt lat="41.58154" lon="9.20647">
        <ele>39.2</ele>
        <time>2018-05-21T13:14:02Z</time>
      </trkpt>
      <trkpt lat="41.58154" lon="9.20649">
        <ele>39.2</ele>
        <time>2018-05-21T13:14:03Z</time>
      </trkpt>
      <trkpt lat="41.58152" lon="9.20658">
        <ele>39</ele>
        <time>2018-05-21T13:14:08Z</time>
      </trkpt>
      <trkpt lat="41.58151" lon="9.20661">
        <ele>39.2</ele>
        <time>2018-05-21T13:14:10Z</time>
      </trkpt>
      <trkpt lat="41.5815" lon="9.20666">
        <ele>39.8</ele>
        <time>2018-05-21T13:14:13Z</time>
      </trkpt>
      <trkpt lat="41.5815" lon="9.20671">
        <ele>40.2</ele>
        <time>2018-05-21T13:14:15Z</time>
      </trkpt>
      <trkpt lat="41.58151" lon="9.20679">
        <ele>40.8</ele>
        <time>2018-05-21T13:14:18Z</time>
      </trkpt>
      <trkpt lat="41.58152" lon="9.20682">
        <ele>41.2</ele>
        <time>2018-05-21T13:14:19Z</time>
      </trkpt>
      <trkpt lat="41.58152" lon="9.20691">
        <ele>42.2</ele>
        <time>2018-05-21T13:14:22Z</time>
      </trkpt>
      <trkpt lat="41.58152" lon="9.20693">
        <ele>42.8</ele>
        <time>2018-05-21T13:14:23Z</time>
      </trkpt>
      <trkpt lat="41.58152" lon="9.20694">
        <ele>43.4</ele>
        <time>2018-05-21T13:14:24Z</time>
      </trkpt>
      <trkpt lat="41.58155" lon="9.20703">
        <ele>44.4</ele>
        <time>2018-05-21T13:14:30Z</time>
      </trkpt>
      <trkpt lat="41.58157" lon="9.20713">
        <ele>45.4</ele>
        <time>2018-05-21T13:14:36Z</time>
      </trkpt>
      <trkpt lat="41.58157" lon="9.20715">
        <ele>45.6</ele>
        <time>2018-05-21T13:14:37Z</time>
      </trkpt>
      <trkpt lat="41.58157" lon="9.20721">
        <ele>46.6</ele>
        <time>2018-05-21T13:14:42Z</time>
      </trkpt>
      <trkpt lat="41.58157" lon="9.20722">
        <ele>46.6</ele>
        <time>2018-05-21T13:14:43Z</time>
      </trkpt>
      <trkpt lat="41.58156" lon="9.20731">
        <ele>46.8</ele>
        <time>2018-05-21T13:14:46Z</time>
      </trkpt>
      <trkpt lat="41.58157" lon="9.20739">
        <ele>47.6</ele>
        <time>2018-05-21T13:14:50Z</time>
      </trkpt>
      <trkpt lat="41.58157" lon="9.2074">
        <ele>48</ele>
        <time>2018-05-21T13:14:51Z</time>
      </trkpt>
      <trkpt lat="41.5816" lon="9.20751">
        <ele>48.6</ele>
        <time>2018-05-21T13:14:56Z</time>
      </trkpt>
      <trkpt lat="41.58161" lon="9.20754">
        <ele>48.8</ele>
        <time>2018-05-21T13:14:57Z</time>
      </trkpt>
      <trkpt lat="41.58162" lon="9.20765">
        <ele>49.6</ele>
        <time>2018-05-21T13:15:01Z</time>
      </trkpt>
      <trkpt lat="41.58162" lon="9.20768">
        <ele>49.8</ele>
        <time>2018-05-21T13:15:02Z</time>
      </trkpt>
      <trkpt lat="41.58161" lon="9.20777">
        <ele>50.4</ele>
        <time>2018-05-21T13:15:05Z</time>
      </trkpt>
      <trkpt lat="41.58161" lon="9.20779">
        <ele>50.6</ele>
        <time>2018-05-21T13:15:06Z</time>
      </trkpt>
      <trkpt lat="41.58161" lon="9.20781">
        <ele>50.8</ele>
        <time>2018-05-21T13:15:07Z</time>
      </trkpt>
      <trkpt lat="41.58163" lon="9.20789">
        <ele>51</ele>
        <time>2018-05-21T13:15:10Z</time>
      </trkpt>
      <trkpt lat="41.58163" lon="9.20793">
        <ele>51.2</ele>
        <time>2018-05-21T13:15:11Z</time>
      </trkpt>
      <trkpt lat="41.58162" lon="9.20804">
        <ele>51.2</ele>
        <time>2018-05-21T13:15:15Z</time>
      </trkpt>
      <trkpt lat="41.58169" lon="9.2082">
        <ele>51.2</ele>
        <time>2018-05-21T13:15:19Z</time>
      </trkpt>
      <trkpt lat="41.58167" lon="9.20834">
        <ele>50.4</ele>
        <time>2018-05-21T13:15:22Z</time>
      </trkpt>
      <trkpt lat="41.58166" lon="9.20851">
        <ele>50.4</ele>
        <time>2018-05-21T13:15:26Z</time>
      </trkpt>
      <trkpt lat="41.58171" lon="9.20887">
        <ele>50</ele>
        <time>2018-05-21T13:15:32Z</time>
      </trkpt>
      <trkpt lat="41.58175" lon="9.209">
        <ele>49.6</ele>
        <time>2018-05-21T13:15:34Z</time>
      </trkpt>
      <trkpt lat="41.58177" lon="9.20911">
        <ele>48.6</ele>
        <time>2018-05-21T13:15:36Z</time>
      </trkpt>
      <trkpt lat="41.58182" lon="9.20933">
        <ele>47.4</ele>
        <time>2018-05-21T13:15:40Z</time>
      </trkpt>
      <trkpt lat="41.58183" lon="9.20938">
        <ele>47.2</ele>
        <time>2018-05-21T13:15:41Z</time>
      </trkpt>
      <trkpt lat="41.58186" lon="9.20954">
        <ele>46.2</ele>
        <time>2018-05-21T13:15:44Z</time>
      </trkpt>
      <trkpt lat="41.58189" lon="9.20962">
        <ele>45.8</ele>
        <time>2018-05-21T13:15:46Z</time>
      </trkpt>
      <trkpt lat="41.58196" lon="9.20986">
        <ele>45.4</ele>
        <time>2018-05-21T13:15:51Z</time>
      </trkpt>
      <trkpt lat="41.58205" lon="9.21007">
        <ele>45.6</ele>
        <time>2018-05-21T13:15:55Z</time>
      </trkpt>
      <trkpt lat="41.58211" lon="9.21024">
        <ele>47</ele>
        <time>2018-05-21T13:16:00Z</time>
      </trkpt>
      <trkpt lat="41.58212" lon="9.21027">
        <ele>47.4</ele>
        <time>2018-05-21T13:16:01Z</time>
      </trkpt>
      <trkpt lat="41.58218" lon="9.2104">
        <ele>48.2</ele>
        <time>2018-05-21T13:16:05Z</time>
      </trkpt>
      <trkpt lat="41.58219" lon="9.21048">
        <ele>48.6</ele>
        <time>2018-05-21T13:16:07Z</time>
      </trkpt>
      <trkpt lat="41.5822" lon="9.21056">
        <ele>49.2</ele>
        <time>2018-05-21T13:16:09Z</time>
      </trkpt>
      <trkpt lat="41.5822" lon="9.21063">
        <ele>50.4</ele>
        <time>2018-05-21T13:16:11Z</time>
      </trkpt>
      <trkpt lat="41.5822" lon="9.21074">
        <ele>51.4</ele>
        <time>2018-05-21T13:16:14Z</time>
      </trkpt>
      <trkpt lat="41.5822" lon="9.21086">
        <ele>51.8</ele>
        <time>2018-05-21T13:16:17Z</time>
      </trkpt>
      <trkpt lat="41.58221" lon="9.21094">
        <ele>52.6</ele>
        <time>2018-05-21T13:16:20Z</time>
      </trkpt>
      <trkpt lat="41.58222" lon="9.21104">
        <ele>53</ele>
        <time>2018-05-21T13:16:23Z</time>
      </trkpt>
      <trkpt lat="41.58227" lon="9.21119">
        <ele>52.8</ele>
        <time>2018-05-21T13:16:28Z</time>
      </trkpt>
      <trkpt lat="41.58237" lon="9.21145">
        <ele>52.8</ele>
        <time>2018-05-21T13:16:35Z</time>
      </trkpt>
      <trkpt lat="41.58238" lon="9.2115">
        <ele>52.8</ele>
        <time>2018-05-21T13:16:36Z</time>
      </trkpt>
      <trkpt lat="41.58239" lon="9.2117">
        <ele>52</ele>
        <time>2018-05-21T13:16:39Z</time>
      </trkpt>
      <trkpt lat="41.58241" lon="9.21177">
        <ele>51.6</ele>
        <time>2018-05-21T13:16:40Z</time>
      </trkpt>
      <trkpt lat="41.58247" lon="9.21186">
        <ele>51</ele>
        <time>2018-05-21T13:16:42Z</time>
      </trkpt>
      <trkpt lat="41.5826" lon="9.21176">
        <ele>50.4</ele>
        <time>2018-05-21T13:16:45Z</time>
      </trkpt>
      <trkpt lat="41.58264" lon="9.2117">
        <ele>50</ele>
        <time>2018-05-21T13:16:46Z</time>
      </trkpt>
      <trkpt lat="41.58269" lon="9.21165">
        <ele>49.6</ele>
        <time>2018-05-21T13:16:47Z</time>
      </trkpt>
      <trkpt lat="41.58282" lon="9.2115">
        <ele>49.2</ele>
        <time>2018-05-21T13:16:50Z</time>
      </trkpt>
      <trkpt lat="41.58294" lon="9.21136">
        <ele>49</ele>
        <time>2018-05-21T13:16:53Z</time>
      </trkpt>
      <trkpt lat="41.58299" lon="9.21133">
        <ele>49</ele>
        <time>2018-05-21T13:16:54Z</time>
      </trkpt>
      <trkpt lat="41.5831" lon="9.21125">
        <ele>48.8</ele>
        <time>2018-05-21T13:16:56Z</time>
      </trkpt>
      <trkpt lat="41.58319" lon="9.21113">
        <ele>48.2</ele>
        <time>2018-05-21T13:16:58Z</time>
      </trkpt>
      <trkpt lat="41.58322" lon="9.21107">
        <ele>47.2</ele>
        <time>2018-05-21T13:16:59Z</time>
      </trkpt>
      <trkpt lat="41.58326" lon="9.21104">
        <ele>46.2</ele>
        <time>2018-05-21T13:17:00Z</time>
      </trkpt>
      <trkpt lat="41.58331" lon="9.21104">
        <ele>45.2</ele>
        <time>2018-05-21T13:17:01Z</time>
      </trkpt>
      <trkpt lat="41.58335" lon="9.21116">
        <ele>43.8</ele>
        <time>2018-05-21T13:17:03Z</time>
      </trkpt>
      <trkpt lat="41.58336" lon="9.21124">
        <ele>43.2</ele>
        <time>2018-05-21T13:17:04Z</time>
      </trkpt>
      <trkpt lat="41.58338" lon="9.21132">
        <ele>42.6</ele>
        <time>2018-05-21T13:17:05Z</time>
      </trkpt>
      <trkpt lat="41.58342" lon="9.21151">
        <ele>41.2</ele>
        <time>2018-05-21T13:17:07Z</time>
      </trkpt>
      <trkpt lat="41.58343" lon="9.21169">
        <ele>39.8</ele>
        <time>2018-05-21T13:17:09Z</time>
      </trkpt>
      <trkpt lat="41.58344" lon="9.21177">
        <ele>39.6</ele>
        <time>2018-05-21T13:17:10Z</time>
      </trkpt>
      <trkpt lat="41.58346" lon="9.21185">
        <ele>39.4</ele>
        <time>2018-05-21T13:17:11Z</time>
      </trkpt>
      <trkpt lat="41.58356" lon="9.21199">
        <ele>39.4</ele>
        <time>2018-05-21T13:17:14Z</time>
      </trkpt>
      <trkpt lat="41.58358" lon="9.21202">
        <ele>39.4</ele>
        <time>2018-05-21T13:17:15Z</time>
      </trkpt>
      <trkpt lat="41.58362" lon="9.21208">
        <ele>39.4</ele>
        <time>2018-05-21T13:17:18Z</time>
      </trkpt>
      <trkpt lat="41.58363" lon="9.21208">
        <ele>39.4</ele>
        <time>2018-05-21T13:17:20Z</time>
      </trkpt>
      <trkpt lat="41.5836" lon="9.21205">
        <ele>39.4</ele>
        <time>2018-05-21T13:17:59Z</time>
      </trkpt>
      <trkpt lat="41.58359" lon="9.21206">
        <ele>39.4</ele>
        <time>2018-05-21T13:18:00Z</time>
      </trkpt>
      <trkpt lat="41.58358" lon="9.21207">
        <ele>39</ele>
        <time>2018-05-21T13:18:02Z</time>
      </trkpt>
      <trkpt lat="41.58364" lon="9.21206">
        <ele>39.2</ele>
        <time>2018-05-21T13:19:11Z</time>
      </trkpt>
      <trkpt lat="41.58366" lon="9.21207">
        <ele>39.4</ele>
        <time>2018-05-21T13:19:12Z</time>
      </trkpt>
      <trkpt lat="41.58381" lon="9.21209">
        <ele>40.2</ele>
        <time>2018-05-21T13:19:18Z</time>
      </trkpt>
      <trkpt lat="41.58389" lon="9.21206">
        <ele>40.6</ele>
        <time>2018-05-21T13:19:22Z</time>
      </trkpt>
      <trkpt lat="41.58394" lon="9.21206">
        <ele>41.2</ele>
        <time>2018-05-21T13:19:24Z</time>
      </trkpt>
      <trkpt lat="41.58399" lon="9.21206">
        <ele>41.8</ele>
        <time>2018-05-21T13:19:26Z</time>
      </trkpt>
      <trkpt lat="41.58406" lon="9.21204">
        <ele>42.4</ele>
        <time>2018-05-21T13:19:29Z</time>
      </trkpt>
      <trkpt lat="41.58411" lon="9.21203">
        <ele>42.8</ele>
        <time>2018-05-21T13:19:31Z</time>
      </trkpt>
      <trkpt lat="41.58425" lon="9.21202">
        <ele>43.2</ele>
        <time>2018-05-21T13:19:35Z</time>
      </trkpt>
      <trkpt lat="41.58439" lon="9.21205">
        <ele>43.2</ele>
        <time>2018-05-21T13:19:39Z</time>
      </trkpt>
      <trkpt lat="41.58444" lon="9.21207">
        <ele>43.2</ele>
        <time>2018-05-21T13:19:40Z</time>
      </trkpt>
      <trkpt lat="41.58463" lon="9.21207">
        <ele>42.8</ele>
        <time>2018-05-21T13:19:44Z</time>
      </trkpt>
      <trkpt lat="41.58473" lon="9.21207">
        <ele>42.6</ele>
        <time>2018-05-21T13:19:46Z</time>
      </trkpt>
      <trkpt lat="41.58483" lon="9.21208">
        <ele>42</ele>
        <time>2018-05-21T13:19:48Z</time>
      </trkpt>
      <trkpt lat="41.58488" lon="9.21209">
        <ele>41.8</ele>
        <time>2018-05-21T13:19:49Z</time>
      </trkpt>
      <trkpt lat="41.58503" lon="9.21208">
        <ele>41.6</ele>
        <time>2018-05-21T13:19:52Z</time>
      </trkpt>
      <trkpt lat="41.58515" lon="9.21201">
        <ele>41.4</ele>
        <time>2018-05-21T13:19:55Z</time>
      </trkpt>
      <trkpt lat="41.5852" lon="9.21185">
        <ele>41.2</ele>
        <time>2018-05-21T13:19:58Z</time>
      </trkpt>
      <trkpt lat="41.58522" lon="9.21179">
        <ele>41.2</ele>
        <time>2018-05-21T13:19:59Z</time>
      </trkpt>
      <trkpt lat="41.58531" lon="9.21151">
        <ele>41.6</ele>
        <time>2018-05-21T13:20:04Z</time>
      </trkpt>
      <trkpt lat="41.58533" lon="9.21145">
        <ele>41.8</ele>
        <time>2018-05-21T13:20:05Z</time>
      </trkpt>
      <trkpt lat="41.58539" lon="9.21135">
        <ele>42.2</ele>
        <time>2018-05-21T13:20:07Z</time>
      </trkpt>
      <trkpt lat="41.58551" lon="9.21118">
        <ele>42.6</ele>
        <time>2018-05-21T13:20:11Z</time>
      </trkpt>
      <trkpt lat="41.58558" lon="9.21111">
        <ele>42.8</ele>
        <time>2018-05-21T13:20:13Z</time>
      </trkpt>
      <trkpt lat="41.5857" lon="9.21102">
        <ele>43.4</ele>
        <time>2018-05-21T13:20:16Z</time>
      </trkpt>
      <trkpt lat="41.58573" lon="9.211">
        <ele>43.6</ele>
        <time>2018-05-21T13:20:17Z</time>
      </trkpt>
      <trkpt lat="41.58585" lon="9.21098">
        <ele>44.8</ele>
        <time>2018-05-21T13:20:20Z</time>
      </trkpt>
      <trkpt lat="41.58596" lon="9.21099">
        <ele>46</ele>
        <time>2018-05-21T13:20:23Z</time>
      </trkpt>
      <trkpt lat="41.58599" lon="9.21097">
        <ele>46</ele>
        <time>2018-05-21T13:20:24Z</time>
      </trkpt>
      <trkpt lat="41.58602" lon="9.21095">
        <ele>46.2</ele>
        <time>2018-05-21T13:20:25Z</time>
      </trkpt>
      <trkpt lat="41.58612" lon="9.21086">
        <ele>46.4</ele>
        <time>2018-05-21T13:20:28Z</time>
      </trkpt>
      <trkpt lat="41.58616" lon="9.21084">
        <ele>46.4</ele>
        <time>2018-05-21T13:20:29Z</time>
      </trkpt>
      <trkpt lat="41.58631" lon="9.21079">
        <ele>45.8</ele>
        <time>2018-05-21T13:20:32Z</time>
      </trkpt>
      <trkpt lat="41.58641" lon="9.21078">
        <ele>45.4</ele>
        <time>2018-05-21T13:20:34Z</time>
      </trkpt>
      <trkpt lat="41.58655" lon="9.21078">
        <ele>45.6</ele>
        <time>2018-05-21T13:20:37Z</time>
      </trkpt>
      <trkpt lat="41.58665" lon="9.21076">
        <ele>46</ele>
        <time>2018-05-21T13:20:39Z</time>
      </trkpt>
      <trkpt lat="41.58697" lon="9.21072">
        <ele>45.8</ele>
        <time>2018-05-21T13:20:46Z</time>
      </trkpt>
      <trkpt lat="41.58701" lon="9.21071">
        <ele>45.8</ele>
        <time>2018-05-21T13:20:47Z</time>
      </trkpt>
      <trkpt lat="41.58719" lon="9.21068">
        <ele>45.8</ele>
        <time>2018-05-21T13:20:51Z</time>
      </trkpt>
      <trkpt lat="41.58741" lon="9.21068">
        <ele>46</ele>
        <time>2018-05-21T13:20:56Z</time>
      </trkpt>
      <trkpt lat="41.58749" lon="9.21066">
        <ele>46.4</ele>
        <time>2018-05-21T13:20:58Z</time>
      </trkpt>
      <trkpt lat="41.58762" lon="9.21062">
        <ele>46.6</ele>
        <time>2018-05-21T13:21:01Z</time>
      </trkpt>
      <trkpt lat="41.58775" lon="9.21057">
        <ele>46.6</ele>
        <time>2018-05-21T13:21:04Z</time>
      </trkpt>
      <trkpt lat="41.58784" lon="9.21053">
        <ele>46.8</ele>
        <time>2018-05-21T13:21:06Z</time>
      </trkpt>
      <trkpt lat="41.58794" lon="9.21049">
        <ele>46.8</ele>
        <time>2018-05-21T13:21:08Z</time>
      </trkpt>
      <trkpt lat="41.58829" lon="9.2103">
        <ele>47.8</ele>
        <time>2018-05-21T13:21:16Z</time>
      </trkpt>
      <trkpt lat="41.58833" lon="9.21028">
        <ele>47.8</ele>
        <time>2018-05-21T13:21:17Z</time>
      </trkpt>
      <trkpt lat="41.58837" lon="9.21026">
        <ele>48</ele>
        <time>2018-05-21T13:21:18Z</time>
      </trkpt>
      <trkpt lat="41.5885" lon="9.21021">
        <ele>48.6</ele>
        <time>2018-05-21T13:21:21Z</time>
      </trkpt>
      <trkpt lat="41.58859" lon="9.21017">
        <ele>48.8</ele>
        <time>2018-05-21T13:21:23Z</time>
      </trkpt>
      <trkpt lat="41.5888" lon="9.21009">
        <ele>49.6</ele>
        <time>2018-05-21T13:21:28Z</time>
      </trkpt>
      <trkpt lat="41.58893" lon="9.21002">
        <ele>50.2</ele>
        <time>2018-05-21T13:21:31Z</time>
      </trkpt>
      <trkpt lat="41.58914" lon="9.2099">
        <ele>50.4</ele>
        <time>2018-05-21T13:21:36Z</time>
      </trkpt>
      <trkpt lat="41.5893" lon="9.20981">
        <ele>51</ele>
        <time>2018-05-21T13:21:40Z</time>
      </trkpt>
      <trkpt lat="41.58937" lon="9.20977">
        <ele>51.6</ele>
        <time>2018-05-21T13:21:42Z</time>
      </trkpt>
      <trkpt lat="41.58945" lon="9.20974">
        <ele>52</ele>
        <time>2018-05-21T13:21:44Z</time>
      </trkpt>
      <trkpt lat="41.58949" lon="9.20972">
        <ele>52.2</ele>
        <time>2018-05-21T13:21:45Z</time>
      </trkpt>
      <trkpt lat="41.58958" lon="9.2097">
        <ele>52.4</ele>
        <time>2018-05-21T13:21:47Z</time>
      </trkpt>
      <trkpt lat="41.58981" lon="9.20964">
        <ele>52.8</ele>
        <time>2018-05-21T13:21:53Z</time>
      </trkpt>
      <trkpt lat="41.5899" lon="9.20961">
        <ele>53.2</ele>
        <time>2018-05-21T13:21:56Z</time>
      </trkpt>
      <trkpt lat="41.59001" lon="9.2096">
        <ele>53.6</ele>
        <time>2018-05-21T13:21:59Z</time>
      </trkpt>
      <trkpt lat="41.59023" lon="9.20966">
        <ele>53.8</ele>
        <time>2018-05-21T13:22:05Z</time>
      </trkpt>
      <trkpt lat="41.59032" lon="9.20966">
        <ele>54</ele>
        <time>2018-05-21T13:22:07Z</time>
      </trkpt>
      <trkpt lat="41.5904" lon="9.20963">
        <ele>53.8</ele>
        <time>2018-05-21T13:22:09Z</time>
      </trkpt>
      <trkpt lat="41.59048" lon="9.20959">
        <ele>54.2</ele>
        <time>2018-05-21T13:22:11Z</time>
      </trkpt>
      <trkpt lat="41.59031" lon="9.20843">
        <ele>62.8</ele>
      </trkpt>
      <trkpt lat="41.59008" lon="9.20777">
        <ele>66.8</ele>
      </trkpt>
      <trkpt lat="41.58999" lon="9.207">
        <ele>66</ele>
      </trkpt>
      <trkpt lat="41.58982" lon="9.20651">
        <ele>65</ele>
      </trkpt>
      <trkpt lat="41.59027" lon="9.20622">
        <ele>66.1</ele>
      </trkpt>
      <trkpt lat="41.59057" lon="9.20536">
        <ele>63.1</ele>
      </trkpt>
      <trkpt lat="41.59068" lon="9.20482">
        <ele>61.3</ele>
      </trkpt>
      <trkpt lat="41.59019" lon="9.20387">
        <ele>60.1</ele>
        <time>2018-05-21T10:34:20Z</time>
      </trkpt>
    </trkseg>
  </trk>
</gpx>